Time;durP1;ratioP1;P1;durP2;ratioP2;P2;SDS_P1;SDS_P2;PMS_P1;PMS_P2;Temp;Humidity;BMP_temperature;BMP_pressure;BME280_temperature;BME280_humidity;BME280_pressure;Samples;Min_cycle;Max_cycle;Signal;HPM_P1;HPM_P2
2021/12/04 00:01:44;;;;;;;50.33;23.90;;;4.40;99.90;;;;;;4955255;29;20134;-78
2021/12/04 00:04:10;;;;;;;55.63;26.38;;;5.00;99.90;;;;;;4955187;29;20174;-79
2021/12/04 00:06:39;;;;;;;56.97;24.58;;;4.30;99.90;;;;;;4954774;29;20058;-78
2021/12/04 00:09:05;;;;;;;55.38;26.08;;;4.40;99.90;;;;;;4937301;29;20399;-78
2021/12/04 00:11:32;;;;;;;59.50;24.90;;;4.30;99.90;;;;;;4955243;29;20050;-77
2021/12/04 00:13:58;;;;;;;60.55;27.17;;;4.30;99.90;;;;;;4955246;29;20051;-78
2021/12/04 00:16:23;;;;;;;62.03;26.50;;;4.30;99.90;;;;;;4954750;29;20043;-78
2021/12/04 00:18:49;;;;;;;70.07;27.75;;;4.30;99.90;;;;;;4937084;29;20054;-78
2021/12/04 00:21:15;;;;;;;71.30;27.77;;;4.30;99.90;;;;;;4937798;29;20039;-79
2021/12/04 00:23:40;;;;;;;59.58;25.63;;;4.30;99.90;;;;;;4937879;29;20558;-78
2021/12/04 00:26:06;;;;;;;65.22;26.95;;;4.30;99.90;;;;;;4954530;29;20094;-78
2021/12/04 00:28:32;;;;;;;64.50;26.80;;;4.30;99.90;;;;;;4954810;29;20055;-77
2021/12/04 00:30:59;;;;;;;63.25;25.33;;;4.30;99.90;;;;;;4921989;29;20066;-79
2021/12/04 00:33:30;;;;;;;58.40;26.20;;;5.00;99.90;;;;;;4937407;29;20062;-78
2021/12/04 00:36:01;;;;;;;66.07;27.08;;;4.30;99.90;;;;;;4954600;29;20134;-78
2021/12/04 00:49:18;;;;;;;62.60;26.17;;;4.30;99.90;;;;;;4954135;29;20059;-78
2021/12/04 00:51:54;;;;;;;70.65;26.35;;;4.30;99.90;;;;;;4954514;29;20679;-78
2021/12/04 00:54:25;;;;;;;69.85;27.33;;;4.30;99.90;;;;;;4954466;29;20043;-79
2021/12/04 00:56:51;;;;;;;67.85;26.17;;;4.30;99.90;;;;;;4953941;29;20097;-78
2021/12/04 00:59:17;;;;;;;65.95;26.20;;;4.30;99.90;;;;;;4954302;29;20574;-78
2021/12/04 01:01:43;;;;;;;71.75;28.92;;;4.30;99.90;;;;;;4954064;29;20062;-78
2021/12/04 01:04:15;;;;;;;84.28;29.15;;;4.30;99.90;;;;;;4954189;29;20035;-77
2021/12/04 01:06:41;;;;;;;78.15;28.00;;;4.30;99.90;;;;;;4954300;29;20051;-77
2021/12/04 01:09:09;;;;;;;86.40;28.73;;;4.30;99.90;;;;;;4936722;29;20111;-78
2021/12/04 01:11:36;;;;;;;65.97;26.65;;;4.30;99.90;;;;;;4953838;29;20055;-78
2021/12/04 01:14:03;;;;;;;73.45;25.55;;;4.20;99.90;;;;;;4954195;29;20043;-78
2021/12/04 01:16:29;;;;;;;71.90;27.83;;;4.20;99.90;;;;;;4936573;29;20462;-77
2021/12/04 01:18:54;;;;;;;62.70;26.15;;;4.30;99.90;;;;;;4954194;29;20058;-77
2021/12/04 01:21:20;;;;;;;67.18;25.77;;;4.20;99.90;;;;;;4953972;29;20090;-78
2021/12/04 01:23:46;;;;;;;71.28;28.08;;;4.30;99.90;;;;;;4936816;29;20058;-78
2021/12/04 01:26:11;;;;;;;71.10;25.95;;;4.20;99.90;;;;;;4953441;29;20039;-78
2021/12/04 01:28:37;;;;;;;69.43;26.17;;;4.20;99.90;;;;;;4920193;29;20047;-78
2021/12/04 01:31:03;;;;;;;72.10;26.45;;;4.20;99.90;;;;;;4953701;29;20450;-78
2021/12/04 01:33:29;;;;;;;68.22;24.25;;;4.20;99.90;;;;;;4953946;29;20451;-78
2021/12/04 01:35:54;;;;;;;67.28;27.98;;;4.20;99.90;;;;;;4953794;29;20388;-78
2021/12/04 01:38:20;;;;;;;78.68;26.83;;;4.20;99.90;;;;;;4953806;29;20372;-77
2021/12/04 01:40:46;;;;;;;87.50;28.30;;;4.20;99.90;;;;;;4953572;29;20119;-78
2021/12/04 01:43:11;;;;;;;78.18;27.50;;;4.20;99.90;;;;;;4953202;29;20091;-78
2021/12/04 01:45:37;;;;;;;80.95;28.02;;;4.20;99.90;;;;;;4936479;29;20411;-78
2021/12/04 01:48:04;;;;;;;74.50;26.75;;;4.20;99.90;;;;;;4953605;29;20081;-78
2021/12/04 01:50:31;;;;;;;76.05;27.95;;;4.20;99.90;;;;;;4953753;29;20122;-77
2021/12/04 01:52:59;;;;;;;72.07;26.58;;;4.20;99.90;;;;;;4953565;29;20183;-78
2021/12/04 01:55:32;;;;;;;81.75;28.08;;;4.20;99.90;;;;;;4953287;29;20047;-78
2021/12/04 01:58:01;;;;;;;71.57;27.70;;;4.20;99.90;;;;;;4952936;29;20052;-78
2021/12/04 02:00:28;;;;;;;69.85;26.02;;;4.20;99.90;;;;;;4953591;29;20141;-78
2021/12/04 02:02:54;;;;;;;69.47;27.10;;;4.20;99.90;;;;;;4936405;29;20043;-78
2021/12/04 02:05:19;;;;;;;66.88;26.17;;;4.20;99.90;;;;;;4953318;29;20410;-78
2021/12/04 02:07:46;;;;;;;81.22;28.10;;;4.20;99.90;;;;;;4953583;29;20122;-78
2021/12/04 02:10:12;;;;;;;69.82;27.10;;;4.20;99.90;;;;;;4953296;29;20126;-77
2021/12/04 02:12:38;;;;;;;83.63;27.85;;;4.20;99.90;;;;;;4935416;29;20051;-77
2021/12/04 02:15:05;;;;;;;77.68;25.80;;;4.20;99.90;;;;;;4935641;29;20087;-78
2021/12/04 02:17:32;;;;;;;65.35;25.00;;;4.20;99.90;;;;;;4953172;29;20043;-77
2021/12/04 02:19:58;;;;;;;76.72;25.23;;;4.30;99.90;;;;;;4953328;29;20047;-78
2021/12/04 02:22:23;;;;;;;71.70;26.48;;;4.20;99.90;;;;;;4936139;29;20047;-79
2021/12/04 02:24:49;;;;;;;73.90;26.38;;;4.20;99.90;;;;;;4936089;29;20067;-77
2021/12/04 02:27:15;;;;;;;70.57;24.17;;;4.20;99.90;;;;;;4934105;29;20051;-78
2021/12/04 02:29:47;;;;;;;83.70;26.73;;;4.20;99.90;;;;;;4933863;29;20048;-77
2021/12/04 02:32:14;;;;;;;62.65;24.70;;;4.20;99.90;;;;;;4934452;29;20048;-78
2021/12/04 02:34:40;;;;;;;70.25;23.27;;;4.20;99.90;;;;;;4934235;29;20055;-78
2021/12/04 02:37:08;;;;;;;65.38;22.83;;;4.20;99.90;;;;;;4934219;29;20044;-78
2021/12/04 02:39:37;;;;;;;70.82;25.00;;;4.20;99.90;;;;;;4933958;29;20039;-78
2021/12/04 02:42:06;;;;;;;77.18;24.23;;;4.20;99.90;;;;;;4934766;29;20059;-78
2021/12/04 02:44:36;;;;;;;63.20;22.92;;;4.20;99.90;;;;;;4919904;29;20072;-78
2021/12/04 02:47:02;;;;;;;63.22;23.80;;;4.20;99.90;;;;;;4940423;29;20051;-78
2021/12/04 02:49:27;;;;;;;65.05;23.27;;;4.20;99.90;;;;;;4956641;29;20387;-77
2021/12/04 02:51:53;;;;;;;60.22;22.17;;;4.20;99.90;;;;;;4956488;29;20388;-78
2021/12/04 02:54:19;;;;;;;57.75;22.33;;;4.20;99.90;;;;;;4956528;29;20079;-77
2021/12/04 02:56:45;;;;;;;56.58;21.90;;;4.20;99.90;;;;;;4956271;29;20051;-77
2021/12/04 02:59:12;;;;;;;59.72;21.45;;;4.10;99.90;;;;;;4956574;29;20047;-78
2021/12/04 03:01:39;;;;;;;57.60;22.08;;;4.20;99.90;;;;;;4956084;29;20490;-78
2021/12/04 03:04:08;;;;;;;49.15;20.73;;;4.20;99.90;;;;;;4956254;29;20125;-78
2021/12/04 03:06:43;;;;;;;51.97;22.00;;;4.20;99.90;;;;;;4956325;29;20039;-78
2021/12/04 03:09:09;;;;;;;57.17;21.13;;;4.20;99.90;;;;;;4955878;28;20071;-77
2021/12/04 03:11:35;;;;;;;51.05;20.48;;;4.20;99.90;;;;;;4956157;29;20526;-78
2021/12/04 03:14:00;;;;;;;46.65;21.13;;;4.20;99.90;;;;;;4956391;29;20178;-78
2021/12/04 03:16:26;;;;;;;52.83;20.33;;;4.20;99.90;;;;;;4955757;29;20084;-78
2021/12/04 03:18:52;;;;;;;49.33;20.80;;;4.20;99.90;;;;;;4938950;29;20515;-77
2021/12/04 03:21:18;;;;;;;49.88;19.90;;;4.20;99.90;;;;;;4956253;29;20380;-78
2021/12/04 03:24:04;;;;;;;46.15;20.55;;;4.20;99.90;;;;;;4955988;29;20047;-78
2021/12/04 03:26:30;;;;;;;46.25;19.75;;;4.20;99.90;;;;;;4939026;29;20087;-78
2021/12/04 03:29:00;;;;;;;72.32;21.83;;;4.20;99.90;;;;;;4955953;29;20094;-77
2021/12/04 03:42:15;;;;;;;43.75;19.40;;;4.20;99.90;;;;;;4938540;29;20154;-78
2021/12/04 03:44:40;;;;;;;44.17;18.27;;;4.20;99.90;;;;;;4955602;29;20570;-78
2021/12/04 03:47:08;;;;;;;44.45;18.40;;;4.20;99.90;;;;;;4937741;29;20058;-78
2021/12/04 03:49:34;;;;;;;48.67;18.90;;;4.20;99.90;;;;;;4955285;29;21323;-78
2021/12/04 03:51:59;;;;;;;41.03;18.15;;;4.20;99.90;;;;;;4955668;29;20094;-77
2021/12/04 03:54:25;;;;;;;46.13;18.67;;;4.20;99.90;;;;;;4954452;28;20410;-78
2021/12/04 03:57:00;;;;;;;47.92;19.40;;;4.20;99.90;;;;;;4955469;29;20063;-78
2021/12/04 03:59:26;;;;;;;40.78;17.25;;;4.30;99.90;;;;;;4955451;29;20082;-78
2021/12/04 04:01:52;;;;;;;46.38;16.75;;;4.10;99.90;;;;;;4954960;29;20463;-78
2021/12/04 04:04:18;;;;;;;37.95;17.23;;;4.50;99.90;;;;;;4955411;29;20126;-78
2021/12/04 04:06:43;;;;;;;41.03;17.52;;;4.10;99.90;;;;;;4955136;29;20051;-78
2021/12/04 04:09:09;;;;;;;44.70;17.88;;;4.10;99.90;;;;;;4955084;29;20193;-77
2021/12/04 04:11:36;;;;;;;45.50;18.10;;;4.10;99.90;;;;;;4955196;29;20087;-78
2021/12/04 04:14:04;;;;;;;43.22;17.75;;;4.10;99.90;;;;;;4937906;29;20055;-78
2021/12/04 04:16:30;;;;;;;43.08;16.75;;;4.10;99.90;;;;;;4954626;29;20047;-77
2021/12/04 04:18:56;;;;;;;46.90;17.70;;;4.10;99.90;;;;;;4954532;29;20606;-77
2021/12/04 04:21:21;;;;;;;41.45;16.73;;;4.10;99.90;;;;;;4937959;29;20047;-78
2021/12/04 04:23:47;;;;;;;49.22;18.15;;;4.10;99.90;;;;;;4954998;29;20102;-79
2021/12/04 04:26:13;;;;;;;50.72;17.73;;;4.10;99.90;;;;;;4937926;29;20051;-79
2021/12/04 04:28:38;;;;;;;40.22;16.25;;;4.10;99.90;;;;;;4937437;29;20058;-78
2021/12/04 04:31:05;;;;;;;43.08;17.33;;;4.10;99.90;;;;;;4954633;29;20055;-77
2021/12/04 04:33:36;;;;;;;41.22;16.17;;;4.10;99.90;;;;;;4954245;29;20035;-78
2021/12/04 04:36:10;;;;;;;47.63;16.85;;;4.10;99.90;;;;;;4937279;29;20058;-77
2021/12/04 04:38:45;;;;;;;41.42;17.90;;;4.10;99.90;;;;;;4954555;29;20039;-78
2021/12/04 05:00:25;;;;;;;49.03;16.58;;;4.10;99.90;;;;;;4954196;29;20063;-77
2021/12/04 05:13:29;;;;;;;47.80;16.05;;;4.10;99.90;;;;;;4953780;29;20055;-78
2021/12/04 05:15:59;;;;;;;44.38;16.60;;;4.10;99.90;;;;;;4953948;29;20051;-77
2021/12/04 05:21:06;;;;;;;48.28;17.20;;;4.10;99.90;;;;;;4953790;29;20051;-77
2021/12/04 05:23:36;;;;;;;43.25;16.88;;;4.10;99.90;;;;;;4953817;29;20035;-78
2021/12/04 05:26:04;;;;;;;44.72;17.10;;;4.10;99.90;;;;;;4953813;29;20058;-77
2021/12/04 05:28:30;;;;;;;42.42;16.60;;;4.10;99.90;;;;;;4953784;29;20053;-77
2021/12/04 05:30:57;;;;;;;44.80;16.08;;;4.10;99.90;;;;;;4953991;29;20406;-77
2021/12/04 05:33:23;;;;;;;37.03;15.82;;;4.10;99.90;;;;;;4953758;29;20130;-78
2021/12/04 05:35:49;;;;;;;32.70;15.75;;;4.10;99.90;;;;;;4953524;29;20137;-77
2021/12/04 05:38:15;;;;;;;39.65;15.38;;;4.20;99.90;;;;;;4936681;29;20138;-77
2021/12/04 05:40:42;;;;;;;38.28;15.70;;;4.10;99.90;;;;;;4953615;29;20046;-77
2021/12/04 05:43:08;;;;;;;34.97;16.85;;;4.10;99.90;;;;;;4953475;29;20098;-78
2021/12/04 05:45:38;;;;;;;41.63;15.15;;;4.10;99.90;;;;;;4953851;29;20075;-78
2021/12/04 05:53:21;;;;;;;38.05;16.45;;;4.10;99.90;;;;;;4936715;29;20062;-77
2021/12/04 05:55:55;;;;;;;38.28;15.40;;;4.10;99.90;;;;;;4953774;29;20126;-77
2021/12/04 05:58:22;;;;;;;39.75;15.80;;;4.10;99.90;;;;;;4953808;29;20135;-78
2021/12/04 06:00:47;;;;;;;46.08;15.95;;;4.10;99.90;;;;;;4953680;29;20054;-77
2021/12/04 06:03:13;;;;;;;40.00;16.08;;;4.20;99.90;;;;;;4953529;29;20051;-77
2021/12/04 06:05:39;;;;;;;36.50;15.90;;;4.20;99.90;;;;;;4953209;29;20089;-78
2021/12/04 06:08:05;;;;;;;45.35;16.10;;;4.20;99.90;;;;;;4936259;29;20102;-77
2021/12/04 06:10:30;;;;;;;45.47;17.35;;;4.20;99.90;;;;;;4953251;29;20123;-77
2021/12/04 06:12:56;;;;;;;48.33;16.88;;;4.10;99.90;;;;;;4953333;29;20043;-78
2021/12/04 06:15:22;;;;;;;35.67;15.18;;;4.20;99.90;;;;;;4953622;29;20047;-78
2021/12/04 06:17:51;;;;;;;48.47;16.73;;;4.20;99.90;;;;;;4938430;29;20051;-77
2021/12/04 06:23:00;;;;;;;41.25;14.85;;;4.10;99.90;;;;;;4956750;29;20051;-77
2021/12/04 06:25:27;;;;;;;42.58;15.20;;;4.10;99.90;;;;;;4939533;29;20054;-79
2021/12/04 06:27:53;;;;;;;40.60;15.35;;;4.10;99.90;;;;;;4957080;29;20078;-78
2021/12/04 06:30:21;;;;;;;43.08;15.82;;;4.10;99.90;;;;;;4957130;29;20121;-78
2021/12/04 06:32:48;;;;;;;45.45;16.25;;;4.20;99.90;;;;;;4956922;29;20130;-78
2021/12/04 06:35:15;;;;;;;40.33;15.25;;;4.10;99.90;;;;;;4939335;29;20063;-77
2021/12/04 06:37:41;;;;;;;44.78;15.50;;;4.10;99.90;;;;;;4956794;29;20039;-77
2021/12/04 06:40:11;;;;;;;44.55;16.65;;;4.20;99.90;;;;;;4956481;29;20398;-78
2021/12/04 06:42:37;;;;;;;49.03;16.02;;;4.10;99.90;;;;;;4939376;29;20483;-77
2021/12/04 06:45:05;;;;;;;48.80;16.02;;;4.10;99.90;;;;;;4939517;29;20111;-77
2021/12/04 06:47:32;;;;;;;45.03;16.10;;;4.10;99.90;;;;;;4956735;29;20054;-78
2021/12/04 06:50:04;;;;;;;45.88;16.92;;;4.10;99.90;;;;;;4956407;29;20054;-77
2021/12/04 06:52:30;;;;;;;43.00;15.73;;;4.10;99.90;;;;;;4956264;29;20043;-77
2021/12/04 06:54:58;;;;;;;42.63;15.68;;;4.10;99.90;;;;;;4956504;29;20058;-78
2021/12/04 06:57:25;;;;;;;37.97;14.90;;;4.10;99.90;;;;;;4956580;29;20051;-78
2021/12/04 06:59:54;;;;;;;38.28;15.50;;;4.10;99.90;;;;;;4956555;29;20050;-78
2021/12/04 07:02:20;;;;;;;38.42;16.50;;;4.10;99.90;;;;;;4956478;29;20050;-77
2021/12/04 07:04:46;;;;;;;45.25;16.95;;;4.10;99.90;;;;;;4955631;29;20099;-77
2021/12/04 07:07:13;;;;;;;45.85;16.77;;;4.10;99.90;;;;;;4956255;29;20518;-78
2021/12/04 07:09:39;;;;;;;40.13;17.23;;;4.10;99.90;;;;;;4955914;29;20414;-77
2021/12/04 07:12:06;;;;;;;46.25;18.08;;;4.10;99.90;;;;;;4956335;29;20050;-77
2021/12/04 07:14:32;;;;;;;47.65;16.40;;;4.10;99.90;;;;;;4955884;29;20515;-77
2021/12/04 07:17:01;;;;;;;50.90;17.15;;;4.50;99.90;;;;;;4938679;29;20047;-78
2021/12/04 07:19:28;;;;;;;44.60;17.73;;;4.10;99.90;;;;;;4938940;29;20051;-77
2021/12/04 07:21:53;;;;;;;52.90;16.88;;;4.10;99.90;;;;;;4956145;29;20048;-77
2021/12/04 07:24:19;;;;;;;48.35;17.75;;;4.10;99.90;;;;;;4956047;29;20043;-78
2021/12/04 07:26:45;;;;;;;61.42;18.13;;;4.10;99.90;;;;;;4956013;29;20114;-77
2021/12/04 07:29:10;;;;;;;47.40;16.77;;;4.10;99.90;;;;;;4955781;28;20050;-78
2021/12/04 07:31:39;;;;;;;46.75;16.90;;;4.10;99.90;;;;;;4955815;29;20051;-77
2021/12/04 07:34:06;;;;;;;43.38;17.02;;;4.10;99.90;;;;;;4955515;29;20574;-77
2021/12/04 07:36:32;;;;;;;37.42;16.63;;;4.10;99.90;;;;;;4956004;29;20036;-77
2021/12/04 07:38:59;;;;;;;55.50;17.83;;;4.10;99.90;;;;;;4955494;29;20079;-77
2021/12/04 07:41:26;;;;;;;50.45;16.77;;;4.10;99.90;;;;;;4955800;29;20515;-77
2021/12/04 07:43:52;;;;;;;43.03;16.08;;;4.10;99.90;;;;;;4955647;29;20130;-78
2021/12/04 07:46:18;;;;;;;43.03;16.73;;;4.10;99.90;;;;;;4955637;29;20110;-77
2021/12/04 07:48:44;;;;;;;40.85;16.15;;;4.10;99.90;;;;;;4955254;29;20055;-77
2021/12/04 07:51:10;;;;;;;45.75;16.83;;;4.10;99.90;;;;;;4955770;29;20388;-78
2021/12/04 07:53:36;;;;;;;53.75;15.90;;;4.10;99.90;;;;;;4938698;29;20439;-78
2021/12/04 07:56:03;;;;;;;45.85;16.85;;;4.10;99.90;;;;;;4955206;29;20043;-77
2021/12/04 07:58:29;;;;;;;51.25;16.63;;;4.10;99.90;;;;;;4955422;29;20558;-78
2021/12/04 08:00:56;;;;;;;51.45;17.40;;;4.10;99.90;;;;;;4955367;29;20127;-78
2021/12/04 08:03:22;;;;;;;41.03;16.90;;;4.10;99.90;;;;;;4955263;29;20410;-78
2021/12/04 08:05:49;;;;;;;45.83;16.65;;;4.10;99.90;;;;;;4937652;29;20043;-78
2021/12/04 08:08:14;;;;;;;44.22;17.60;;;4.50;99.90;;;;;;4955118;29;20047;-76
2021/12/04 08:10:40;;;;;;;44.05;16.45;;;4.10;99.90;;;;;;4939976;28;20414;-76
2021/12/04 08:13:06;;;;;;;47.30;17.08;;;4.10;99.90;;;;;;4974495;28;20066;-76
2021/12/04 08:15:32;;;;;;;50.33;17.15;;;4.10;99.90;;;;;;4957045;28;20109;-78
2021/12/04 08:17:58;;;;;;;56.75;16.52;;;4.10;99.90;;;;;;4974280;28;20038;-78
2021/12/04 08:20:25;;;;;;;36.33;15.82;;;4.10;99.90;;;;;;4940985;29;20410;-78
2021/12/04 08:22:51;;;;;;;57.72;16.90;;;4.10;99.90;;;;;;4955164;29;20043;-77
2021/12/04 08:25:18;;;;;;;42.13;16.80;;;4.10;99.90;;;;;;4937388;29;20458;-79
2021/12/04 08:27:46;;;;;;;50.45;16.75;;;4.10;99.90;;;;;;4954731;29;20051;-75
2021/12/04 08:30:15;;;;;;;50.92;15.90;;;4.10;99.90;;;;;;4954905;29;20439;-78
2021/12/04 08:32:41;;;;;;;42.35;15.48;;;4.30;99.90;;;;;;4937586;29;20374;-78
2021/12/04 08:35:10;;;;;;;64.28;17.48;;;4.60;99.90;;;;;;4937520;29;20118;-78
2021/12/04 08:37:36;;;;;;;45.67;15.77;;;4.10;99.90;;;;;;4954798;29;20050;-78
2021/12/04 08:40:09;;;;;;;48.53;15.98;;;4.10;99.90;;;;;;4953201;28;20406;-78
2021/12/04 08:42:35;;;;;;;50.85;16.42;;;4.10;99.90;;;;;;4954387;29;20055;-78
2021/12/04 08:45:01;;;;;;;44.67;16.20;;;4.10;99.90;;;;;;4954440;29;20415;-78
2021/12/04 08:47:26;;;;;;;53.75;16.30;;;4.10;99.90;;;;;;4937262;29;20055;-77
2021/12/04 08:49:52;;;;;;;50.33;16.02;;;4.10;99.90;;;;;;4954428;29;20085;-78
2021/12/04 08:52:18;;;;;;;42.17;15.98;;;4.10;99.90;;;;;;4937449;29;20043;-77
2021/12/04 08:54:45;;;;;;;47.10;16.55;;;4.10;99.90;;;;;;4937467;29;20082;-78
2021/12/04 08:57:11;;;;;;;53.88;16.60;;;4.10;99.90;;;;;;4954140;29;20394;-79
2021/12/04 08:59:37;;;;;;;41.80;15.90;;;4.10;99.90;;;;;;4937053;29;20050;-77
2021/12/04 09:02:03;;;;;;;42.53;14.80;;;4.10;99.90;;;;;;4954233;29;20670;-77
2021/12/04 09:04:33;;;;;;;43.97;15.20;;;4.10;99.90;;;;;;4936952;29;20495;-79
2021/12/04 09:06:59;;;;;;;38.38;15.65;;;4.10;99.90;;;;;;4954419;29;20110;-79
2021/12/04 09:09:28;;;;;;;33.42;13.77;;;4.10;99.90;;;;;;4936768;29;20549;-78
2021/12/04 09:12:01;;;;;;;35.35;13.43;;;4.20;99.90;;;;;;4954114;29;20055;-78
2021/12/04 09:14:30;;;;;;;34.95;12.85;;;4.10;99.90;;;;;;4954007;29;20410;-78
2021/12/04 09:16:58;;;;;;;30.63;11.98;;;4.20;99.90;;;;;;4953844;29;20055;-80
2021/12/04 09:19:24;;;;;;;27.10;11.68;;;4.10;99.90;;;;;;4953885;28;20114;-75
2021/12/04 09:21:52;;;;;;;29.42;11.20;;;4.20;99.90;;;;;;4954032;28;20039;-78
2021/12/04 09:24:25;;;;;;;30.30;11.32;;;4.20;99.90;;;;;;4953913;29;20036;-78
2021/12/04 09:26:58;;;;;;;27.88;10.98;;;4.20;99.90;;;;;;4953832;29;20442;-78
2021/12/04 09:35:47;;;;;;;25.65;10.73;;;4.20;99.90;;;;;;4784642;29;20462;-78
2021/12/04 10:17:05;;;;;;;21.33;11.27;;;4.40;99.90;;;;;;4897326;29;20504;-77
2021/12/04 10:33:17;;;;;;;22.90;11.32;;;4.50;99.90;;;;;;4897697;29;20268;-78
2021/12/04 10:35:48;;;;;;;23.05;11.30;;;4.50;99.90;;;;;;4897711;29;20093;-77
2021/12/04 10:38:28;;;;;;;23.25;12.10;;;4.50;99.90;;;;;;4881993;29;20125;-78
2021/12/04 10:40:54;;;;;;;23.55;12.23;;;4.50;99.90;;;;;;4881513;29;20059;-76
2021/12/04 10:43:27;;;;;;;21.80;12.10;;;4.50;99.90;;;;;;4897388;29;20053;-77
2021/12/04 10:46:00;;;;;;;25.52;12.07;;;4.50;99.90;;;;;;4897135;29;20056;-79
2021/12/04 10:48:30;;;;;;;22.48;11.50;;;4.60;99.90;;;;;;4897515;29;20048;-78
2021/12/04 10:51:09;;;;;;;22.70;11.43;;;4.60;99.90;;;;;;4922121;29;20138;-78
2021/12/04 10:53:45;;;;;;;23.45;12.40;;;4.60;99.90;;;;;;4956421;29;20491;-78
2021/12/04 10:56:27;;;;;;;26.23;13.00;;;4.60;99.90;;;;;;4956738;29;20059;-78
2021/12/04 11:04:17;;;;;;;29.55;14.00;;;4.70;99.90;;;;;;4955711;28;20047;-81
2021/12/04 11:07:01;;;;;;;29.58;14.65;;;4.70;99.90;;;;;;4956156;29;20058;-79
2021/12/04 11:42:24;;;;;;;24.90;11.57;;;4.80;99.90;;;;;;4938303;29;20090;-79
2021/12/04 11:44:58;;;;;;;26.15;13.32;;;4.80;99.90;;;;;;4938538;29;20058;-78
2021/12/04 11:47:34;;;;;;;25.00;12.15;;;4.80;99.90;;;;;;4938369;29;20051;-78
2021/12/04 11:49:59;;;;;;;24.08;12.18;;;4.90;99.90;;;;;;4955622;29;20055;-78
2021/12/04 11:52:25;;;;;;;22.23;11.82;;;4.90;99.90;;;;;;4955505;29;20094;-78
2021/12/04 11:54:58;;;;;;;25.20;13.35;;;4.80;99.90;;;;;;4955826;29;20134;-81
2021/12/04 11:57:33;;;;;;;24.85;12.98;;;4.90;99.90;;;;;;4955562;29;20058;-78
2021/12/04 12:00:23;;;;;;;27.35;13.95;;;5.30;99.90;;;;;;4955534;29;20035;-81
2021/12/04 12:02:50;;;;;;;22.20;12.15;;;4.90;99.90;;;;;;4954899;29;20062;-78
2021/12/04 12:05:20;;;;;;;24.60;13.65;;;4.90;99.90;;;;;;4954048;29;20046;-78
2021/12/04 12:07:54;;;;;;;27.08;13.40;;;4.90;99.90;;;;;;4959884;28;20123;-78
2021/12/04 12:10:21;;;;;;;29.70;13.68;;;4.80;99.90;;;;;;4937910;29;20134;-79
2021/12/04 12:12:48;;;;;;;27.92;14.85;;;4.90;99.90;;;;;;4937731;29;20098;-78
2021/12/04 12:15:32;;;;;;;29.08;14.13;;;4.90;99.90;;;;;;4954109;28;20083;-78
2021/12/04 12:18:13;;;;;;;30.63;14.20;;;4.90;99.90;;;;;;4955051;29;20041;-79
2021/12/04 12:20:51;;;;;;;31.75;14.55;;;4.90;99.90;;;;;;4955011;29;20051;-78
2021/12/04 12:23:21;;;;;;;29.05;13.02;;;4.90;99.90;;;;;;4937798;29;20443;-78
2021/12/04 12:26:13;;;;;;;29.55;14.13;;;4.90;99.90;;;;;;4937498;29;20043;-79
2021/12/04 12:31:52;;;;;;;32.75;14.23;;;5.00;99.90;;;;;;4953227;28;20047;-78
2021/12/04 12:37:23;;;;;;;32.83;14.93;;;5.00;99.90;;;;;;4937615;29;20508;-79
2021/12/04 12:40:01;;;;;;;32.17;15.07;;;5.00;99.90;;;;;;4954797;29;20074;-77
2021/12/04 12:42:35;;;;;;;34.33;14.75;;;5.00;99.90;;;;;;4954751;29;20122;-78
2021/12/04 12:45:29;;;;;;;32.17;15.30;;;5.00;99.90;;;;;;4933180;29;20075;-80
2021/12/04 12:48:01;;;;;;;35.53;15.38;;;5.00;99.90;;;;;;4933361;29;20408;-78
2021/12/04 12:50:38;;;;;;;36.42;16.27;;;5.20;99.90;;;;;;4945462;29;20485;-78
2021/12/04 12:53:19;;;;;;;37.88;17.38;;;5.50;99.90;;;;;;4936861;29;20047;-79
2021/12/04 12:55:49;;;;;;;30.50;14.63;;;4.90;99.90;;;;;;4954573;29;20131;-78
2021/12/04 12:58:20;;;;;;;33.72;15.57;;;4.90;99.90;;;;;;4953823;29;20142;-77
2021/12/04 13:12:02;;;;;;;35.53;16.75;;;4.90;99.90;;;;;;4952636;29;20299;-78
2021/12/04 13:14:51;;;;;;;35.00;15.45;;;4.90;99.90;;;;;;4954049;29;20132;-79
2021/12/04 13:17:23;;;;;;;33.10;15.48;;;5.20;99.90;;;;;;4935006;29;20055;-80
2021/12/04 13:19:53;;;;;;;30.52;15.60;;;5.00;99.90;;;;;;4943654;28;20502;-78
2021/12/04 13:22:25;;;;;;;33.45;14.48;;;4.90;99.90;;;;;;4945170;29;20047;-78
2021/12/04 13:24:53;;;;;;;31.92;13.85;;;4.90;99.90;;;;;;4926389;28;20074;-79
2021/12/04 13:29:50;;;;;;;33.75;14.40;;;5.00;99.90;;;;;;4953970;29;20051;-78
2021/12/04 13:32:27;;;;;;;33.28;14.52;;;4.90;99.90;;;;;;4953441;29;20047;-78
2021/12/04 13:34:52;;;;;;;29.90;14.55;;;4.90;99.90;;;;;;4932287;29;20061;-76
2021/12/04 13:37:25;;;;;;;34.08;14.45;;;5.00;99.90;;;;;;4952549;28;20122;-76
2021/12/04 13:39:57;;;;;;;37.90;14.57;;;4.90;99.90;;;;;;4952722;29;20134;-78
2021/12/04 13:42:24;;;;;;;33.47;14.93;;;5.00;99.90;;;;;;4953694;29;20047;-77
2021/12/04 13:44:50;;;;;;;30.15;13.48;;;5.00;99.90;;;;;;4953109;29;20395;-78
2021/12/04 13:47:16;;;;;;;32.17;15.15;;;4.90;99.90;;;;;;4952699;29;20042;-77
2021/12/04 13:50:06;;;;;;;33.58;15.40;;;4.90;99.90;;;;;;4931985;29;20048;-80
2021/12/04 13:52:32;;;;;;;39.75;15.60;;;5.00;99.90;;;;;;4945661;29;20526;-79
2021/12/04 13:55:06;;;;;;;31.45;14.82;;;4.90;99.90;;;;;;4953216;29;20047;-79
2021/12/04 13:57:33;;;;;;;37.53;15.73;;;4.90;99.90;;;;;;4953761;29;20043;-79
2021/12/04 14:00:00;;;;;;;32.05;14.75;;;4.90;99.90;;;;;;4953795;29;20051;-79
2021/12/04 14:02:29;;;;;;;40.25;16.98;;;5.00;99.90;;;;;;4953320;29;20051;-80
2021/12/04 14:05:08;;;;;;;41.42;16.95;;;4.90;99.90;;;;;;4952989;29;20043;-79
2021/12/04 14:07:34;;;;;;;39.58;16.92;;;5.00;99.90;;;;;;4935953;29;20499;-79
2021/12/04 14:10:21;;;;;;;42.75;17.23;;;4.90;99.90;;;;;;4953368;29;20055;-78
2021/12/04 14:12:47;;;;;;;38.65;16.60;;;5.00;99.90;;;;;;4952863;29;20047;-79
2021/12/04 14:15:17;;;;;;;37.45;16.27;;;4.90;99.90;;;;;;4952803;29;20042;-79
2021/12/04 14:17:42;;;;;;;44.38;17.00;;;5.00;99.90;;;;;;4953279;29;20039;-79
2021/12/04 14:20:12;;;;;;;43.53;17.48;;;5.00;99.90;;;;;;4953205;29;20065;-79
2021/12/04 14:22:48;;;;;;;43.42;16.92;;;4.90;99.90;;;;;;4935422;29;20076;-77
2021/12/04 14:25:15;;;;;;;39.42;17.60;;;5.00;99.90;;;;;;4953132;29;20047;-77
2021/12/04 14:27:42;;;;;;;42.70;17.35;;;5.00;99.90;;;;;;4934106;29;20048;-78
2021/12/04 14:30:11;;;;;;;42.72;18.27;;;4.90;99.90;;;;;;4934397;29;20104;-77
2021/12/04 14:32:40;;;;;;;48.70;18.88;;;4.90;99.90;;;;;;4934180;29;20047;-78
2021/12/04 14:35:15;;;;;;;49.05;19.38;;;4.90;99.90;;;;;;4934203;29;20054;-78
2021/12/04 14:37:44;;;;;;;48.60;20.63;;;5.00;99.90;;;;;;4950112;28;20075;-78
2021/12/04 14:40:13;;;;;;;48.88;21.10;;;4.90;99.90;;;;;;4956636;29;20487;-79
2021/12/04 14:42:39;;;;;;;60.03;22.98;;;4.90;99.90;;;;;;4956348;29;20098;-78
2021/12/04 14:45:11;;;;;;;51.08;21.05;;;4.90;99.90;;;;;;4955526;29;20471;-79
2021/12/04 14:47:45;;;;;;;55.70;21.70;;;4.90;99.90;;;;;;4956171;29;20075;-77
2021/12/04 14:50:14;;;;;;;52.90;22.50;;;4.90;99.90;;;;;;4939030;29;20050;-77
2021/12/04 14:52:41;;;;;;;59.10;22.05;;;4.90;99.90;;;;;;4955873;29;20047;-78
2021/12/04 14:55:25;;;;;;;61.35;23.65;;;4.80;99.90;;;;;;4956056;29;20059;-77
2021/12/04 14:57:52;;;;;;;60.90;23.45;;;4.90;99.90;;;;;;4937649;29;20136;-78
2021/12/04 15:00:19;;;;;;;60.45;24.40;;;4.80;99.90;;;;;;4937524;29;20083;-79
2021/12/04 15:02:51;;;;;;;68.85;25.30;;;4.80;99.90;;;;;;4920022;29;20098;-77
2021/12/04 15:05:32;;;;;;;68.65;25.88;;;4.90;99.90;;;;;;4945825;29;20398;-77
2021/12/04 15:08:12;;;;;;;72.57;26.23;;;4.90;99.90;;;;;;4956126;29;20130;-77
2021/12/04 15:10:39;;;;;;;61.65;25.40;;;4.80;99.90;;;;;;4955790;29;20057;-78
2021/12/04 15:13:06;;;;;;;64.72;25.48;;;4.80;99.90;;;;;;4956432;29;20074;-76
2021/12/04 15:15:35;;;;;;;61.70;26.00;;;4.80;99.90;;;;;;4956544;29;20130;-77
2021/12/04 15:18:09;;;;;;;59.95;25.27;;;4.80;99.90;;;;;;4956106;29;20487;-78
2021/12/04 15:20:38;;;;;;;62.60;25.77;;;4.80;99.90;;;;;;4956361;29;20047;-78
2021/12/04 15:23:08;;;;;;;63.40;26.33;;;4.80;99.90;;;;;;4938811;29;20418;-78
2021/12/04 15:25:36;;;;;;;65.70;26.65;;;4.80;99.90;;;;;;4955995;29;20086;-79
2021/12/04 15:28:17;;;;;;;59.58;25.13;;;4.80;99.90;;;;;;4956034;29;20695;-77
2021/12/04 15:30:49;;;;;;;62.88;26.25;;;4.80;99.90;;;;;;4938645;29;20043;-77
2021/12/04 15:33:35;;;;;;;61.80;25.10;;;4.80;99.90;;;;;;4955522;29;20540;-79
2021/12/04 15:36:03;;;;;;;57.75;25.70;;;4.80;99.90;;;;;;4956052;29;20113;-79
2021/12/04 15:38:36;;;;;;;60.00;25.85;;;4.80;99.90;;;;;;4956073;29;20427;-79
2021/12/04 15:41:14;;;;;;;60.50;24.58;;;4.80;99.90;;;;;;4955532;29;20114;-79
2021/12/04 15:43:58;;;;;;;58.90;25.75;;;5.40;99.90;;;;;;4955639;29;20051;-79